^^
Meteo Knjazevac Station Historical Data
Daily Summary for June 20, 2021 Units:  English    Metric   Both
Daily Weekly Monthly Yearly Custom
  High: Low: Average:
Temperature: 37.4 °F 34 °F 35.7 °F
Dew Point: 37 °F 33.7 °F 35.3 °F
Humidity: 99% 96% 99%
Wind Speed: 3mph 1mph 2.1mph
Wind Gust: 7mph - -
Wind- - West
Pressure: 30.43 in 30.41 in -
Precipitation: 0.00 in    
Historical Graphs
 
 
Tabular Data for June 20, 2021
Time Temperature Dew Point Pressure Wind Wind Speed Wind Gust Humidity Rainfall Rate (Hourly) solar Conditions
00:00 37.4 °F 36.4 °F 30.42 in West 2 mph 4 mph 96% 0.00 in 0 W/m2
00:10 37.4 °F 36.9 °F 30.43 in WNW 2 mph 7 mph 98% 0.00 in 0 W/m2
00:20 37.2 °F 36.7 °F 30.43 in West 2 mph 4 mph 98% 0.00 in 0 W/m2
00:30 37.2 °F 37 °F 30.43 in West 2 mph 6 mph 99% 0.00 in 0 W/m2
00:40 37 °F 36.8 °F 30.43 in West 3 mph 4 mph 99% 0.00 in 0 W/m2
00:50 36.9 °F 36.6 °F 30.43 in West 2 mph 4 mph 99% 0.00 in 0 W/m2
01:00 36.7 °F 36.4 °F 30.43 in West 2 mph 3 mph 99% 0.00 in 0 W/m2
01:10 36.5 °F 36 °F 30.42 in West 2 mph 3 mph 98% 0.00 in 0 W/m2
01:20 36.3 °F 36.1 °F 30.42 in WNW 2 mph 4 mph 99% 0.00 in 0 W/m2
01:30 36.2 °F 36 °F 30.42 in WNW 2 mph 3 mph 99% 0.00 in 0 W/m2
01:40 36.1 °F 35.9 °F 30.42 in WNW 1 mph 3 mph 99% 0.00 in 0 W/m2
01:50 35.9 °F 35.6 °F 30.42 in West 2 mph 3 mph 99% 0.00 in 0 W/m2
02:00 35.4 °F 34.9 °F 30.42 in West 1 mph 3 mph 98% 0.00 in 0 W/m2
02:10 35.1 °F 34.6 °F 30.42 in West 1 mph 3 mph 98% 0.00 in 0 W/m2
02:20 34.7 °F 34.2 °F 30.42 in West 3 mph 5 mph 98% 0.00 in 0 W/m2
02:30 34.7 °F 34.4 °F 30.41 in WNW 3 mph 6 mph 99% 0.00 in 0 W/m2
02:40 35.1 °F 34.8 °F 30.41 in WNW 3 mph 6 mph 99% 0.00 in 0 W/m2
02:50 35.2 °F 35 °F 30.41 in West 2 mph 5 mph 99% 0.00 in 0 W/m2
03:00 34.9 °F 34.6 °F 30.41 in WNW 2 mph 5 mph 99% 0.00 in 0 W/m2
03:10 34.7 °F 34.4 °F 30.41 in West 2 mph 4 mph 99% 0.00 in 0 W/m2
03:20 34.3 °F 34.1 °F 30.41 in West 2 mph 4 mph 99% 0.00 in 0 W/m2
03:30 34.2 °F 33.9 °F 30.41 in West 3 mph 5 mph 99% 0.00 in 0 W/m2
03:40 34.2 °F 33.9 °F 30.41 in West 2 mph 5 mph 99% 0.00 in 0 W/m2
03:50 34 °F 33.7 °F 30.41 in West 2 mph 3 mph 99% 0.00 in 0 W/m2
04:00 34 °F 33.7 °F 30.41 in WNW 2 mph 4 mph 99% 0.00 in 0 W/m2
Knjazevac, Serbia
Compliments of Weather Underground - 2 mb